sensor_id;sensor_type;location;lat;lon;timestamp;pressure;altitude;pressure_sealevel;temperature;humidity
64675;BME280;51090;51.512;11.332;2023-05-08T00:00:24;100157.19;;;9.28;100.00
64675;BME280;51090;51.512;11.332;2023-05-08T00:02:49;100140.94;;;9.23;100.00
64675;BME280;51090;51.512;11.332;2023-05-08T00:05:15;100137.84;;;9.28;100.00
64675;BME280;51090;51.512;11.332;2023-05-08T00:07:41;100132.19;;;9.23;100.00
64675;BME280;51090;51.512;11.332;2023-05-08T00:10:08;100134.84;;;9.23;100.00
64675;BME280;51090;51.512;11.332;2023-05-08T00:12:35;100125.41;;;9.20;100.00
64675;BME280;51090;51.512;11.332;2023-05-08T00:15:02;100128.19;;;9.19;100.00
64675;BME280;51090;51.512;11.332;2023-05-08T00:17:28;100123.72;;;9.19;100.00
64675;BME280;51090;51.512;11.332;2023-05-08T00:19:54;100125.50;;;9.10;100.00
64675;BME280;51090;51.512;11.332;2023-05-08T00:22:20;100141.41;;;9.19;100.00
64675;BME280;51090;51.512;11.332;2023-05-08T00:24:46;100141.28;;;9.20;100.00
64675;BME280;51090;51.512;11.332;2023-05-08T00:27:12;100136.81;;;9.21;100.00
64675;BME280;51090;51.512;11.332;2023-05-08T00:29:38;100137.78;;;9.20;100.00
64675;BME280;51090;51.512;11.332;2023-05-08T00:32:06;100136.81;;;9.21;100.00
64675;BME280;51090;51.512;11.332;2023-05-08T00:34:32;100136.31;;;9.17;100.00
64675;BME280;51090;51.512;11.332;2023-05-08T00:36:58;100136.44;;;9.15;100.00
64675;BME280;51090;51.512;11.332;2023-05-08T00:39:24;100137.59;;;9.13;100.00
64675;BME280;51090;51.512;11.332;2023-05-08T00:41:50;100140.56;;;9.10;100.00
64675;BME280;51090;51.512;11.332;2023-05-08T00:44:16;100138.25;;;9.07;100.00
64675;BME280;51090;51.512;11.332;2023-05-08T00:46:43;100140.03;;;9.06;100.00
64675;BME280;51090;51.512;11.332;2023-05-08T00:49:10;100131.59;;;9.03;100.00
64675;BME280;51090;51.512;11.332;2023-05-08T00:51:39;100126.75;;;8.98;100.00
64675;BME280;51090;51.512;11.332;2023-05-08T00:54:06;100124.59;;;8.93;100.00
64675;BME280;51090;51.512;11.332;2023-05-08T00:56:33;100128.22;;;8.92;100.00
64675;BME280;51090;51.512;11.332;2023-05-08T00:59:00;100124.09;;;8.90;100.00
64675;BME280;51090;51.512;11.332;2023-05-08T01:01:27;100124.41;;;8.87;100.00
64675;BME280;51090;51.512;11.332;2023-05-08T01:03:53;100130.00;;;8.84;100.00
64675;BME280;51090;51.512;11.332;2023-05-08T01:06:20;100123.38;;;8.80;100.00
64675;BME280;51090;51.512;11.332;2023-05-08T01:08:46;100123.00;;;8.75;100.00
64675;BME280;51090;51.512;11.332;2023-05-08T01:14:11;100119.84;;;8.71;100.00
64675;BME280;51090;51.512;11.332;2023-05-08T01:17:08;100121.81;;;8.69;100.00
64675;BME280;51090;51.512;11.332;2023-05-08T01:25:07;100120.63;;;8.63;100.00
64675;BME280;51090;51.512;11.332;2023-05-08T01:28:07;100125.56;;;8.58;100.00
64675;BME280;51090;51.512;11.332;2023-05-08T01:31:05;100131.13;;;8.55;100.00
64675;BME280;51090;51.512;11.332;2023-05-08T01:36:59;100133.41;;;8.50;100.00
64675;BME280;51090;51.512;11.332;2023-05-08T01:45:06;100145.75;;;8.41;100.00
64675;BME280;51090;51.512;11.332;2023-05-08T01:47:37;100144.19;;;8.39;100.00
64675;BME280;51090;51.512;11.332;2023-05-08T01:50:06;100141.03;;;8.35;100.00
64675;BME280;51090;51.512;11.332;2023-05-08T01:52:48;100146.63;;;8.32;100.00
64675;BME280;51090;51.512;11.332;2023-05-08T01:55:26;100146.09;;;8.28;100.00
64675;BME280;51090;51.512;11.332;2023-05-08T01:57:57;100142.78;;;8.26;100.00
64675;BME280;51090;51.512;11.332;2023-05-08T02:00:25;100151.69;;;8.25;100.00
64675;BME280;51090;51.512;11.332;2023-05-08T02:02:53;100143.22;;;8.22;100.00
64675;BME280;51090;51.512;11.332;2023-05-08T02:05:21;100137.44;;;8.18;100.00
64675;BME280;51090;51.512;11.332;2023-05-08T02:07:50;100147.31;;;8.16;100.00
64675;BME280;51090;51.512;11.332;2023-05-08T02:10:17;100147.31;;;8.16;100.00
64675;BME280;51090;51.512;11.332;2023-05-08T02:12:45;100140.69;;;8.12;100.00
64675;BME280;51090;51.512;11.332;2023-05-08T02:15:12;100139.31;;;8.08;100.00
64675;BME280;51090;51.512;11.332;2023-05-08T02:17:41;100137.56;;;7.99;100.00
64675;BME280;51090;51.512;11.332;2023-05-08T02:20:08;100137.88;;;7.96;100.00
64675;BME280;51090;51.512;11.332;2023-05-08T02:22:42;100140.81;;;7.93;100.00
64675;BME280;51090;51.512;11.332;2023-05-08T02:25:10;100145.03;;;7.85;100.00
64675;BME280;51090;51.512;11.332;2023-05-08T02:27:40;100148.28;;;7.79;100.00
64675;BME280;51090;51.512;11.332;2023-05-08T02:30:13;100153.06;;;7.76;100.00
64675;BME280;51090;51.512;11.332;2023-05-08T02:32:44;100149.88;;;7.72;100.00
64675;BME280;51090;51.512;11.332;2023-05-08T02:35:13;100150.16;;;7.69;100.00
64675;BME280;51090;51.512;11.332;2023-05-08T02:37:43;100147.00;;;7.66;100.00
64675;BME280;51090;51.512;11.332;2023-05-08T02:40:10;100152.84;;;7.59;100.00
64675;BME280;51090;51.512;11.332;2023-05-08T02:42:37;100155.28;;;7.53;100.00
64675;BME280;51090;51.512;11.332;2023-05-08T02:45:04;100154.88;;;7.48;100.00
64675;BME280;51090;51.512;11.332;2023-05-08T02:53:33;100154.09;;;7.37;100.00
64675;BME280;51090;51.512;11.332;2023-05-08T02:56:09;100148.44;;;7.32;100.00
64675;BME280;51090;51.512;11.332;2023-05-08T02:58:43;100156.78;;;7.28;100.00
64675;BME280;51090;51.512;11.332;2023-05-08T03:04:23;100157.66;;;7.18;100.00
64675;BME280;51090;51.512;11.332;2023-05-08T03:06:52;100155.72;;;7.11;100.00
64675;BME280;51090;51.512;11.332;2023-05-08T03:09:20;100163.13;;;7.07;100.00
64675;BME280;51090;51.512;11.332;2023-05-08T03:11:49;100152.00;;;7.04;100.00
64675;BME280;51090;51.512;11.332;2023-05-08T03:14:21;100155.63;;;7.03;100.00
64675;BME280;51090;51.512;11.332;2023-05-08T03:16:51;100151.34;;;7.02;100.00
64675;BME280;51090;51.512;11.332;2023-05-08T03:19:37;100148.69;;;7.02;100.00
64675;BME280;51090;51.512;11.332;2023-05-08T03:22:06;100146.31;;;6.98;100.00
64675;BME280;51090;51.512;11.332;2023-05-08T03:24:35;100152.31;;;7.01;100.00
64675;BME280;51090;51.512;11.332;2023-05-08T03:27:04;100144.56;;;6.99;100.00
64675;BME280;51090;51.512;11.332;2023-05-08T03:29:32;100145.22;;;7.01;100.00
64675;BME280;51090;51.512;11.332;2023-05-08T03:32:00;100139.28;;;6.99;100.00
64675;BME280;51090;51.512;11.332;2023-05-08T03:34:28;100147.44;;;6.96;100.00
64675;BME280;51090;51.512;11.332;2023-05-08T03:36:55;100146.22;;;6.90;100.00
64675;BME280;51090;51.512;11.332;2023-05-08T03:39:21;100145.41;;;6.90;100.00
64675;BME280;51090;51.512;11.332;2023-05-08T03:41:49;100150.13;;;6.86;100.00
64675;BME280;51090;51.512;11.332;2023-05-08T03:44:17;100152.38;;;6.81;100.00
64675;BME280;51090;51.512;11.332;2023-05-08T03:46:44;100142.78;;;6.80;100.00
64675;BME280;51090;51.512;11.332;2023-05-08T03:49:12;100149.19;;;6.78;100.00
64675;BME280;51090;51.512;11.332;2023-05-08T03:51:39;100142.09;;;6.78;100.00
64675;BME280;51090;51.512;11.332;2023-05-08T03:54:05;100152.63;;;6.78;100.00
64675;BME280;51090;51.512;11.332;2023-05-08T03:56:33;100146.81;;;6.84;100.00
64675;BME280;51090;51.512;11.332;2023-05-08T03:59:00;100151.66;;;6.89;100.00
64675;BME280;51090;51.512;11.332;2023-05-08T04:01:37;100154.81;;;6.92;100.00
64675;BME280;51090;51.512;11.332;2023-05-08T04:07:07;100159.25;;;7.02;100.00
64675;BME280;51090;51.512;11.332;2023-05-08T04:09:57;100157.56;;;7.01;100.00
64675;BME280;51090;51.512;11.332;2023-05-08T04:14:55;100164.88;;;7.16;100.00
64675;BME280;51090;51.512;11.332;2023-05-08T04:17:48;100161.78;;;7.21;100.00
64675;BME280;51090;51.512;11.332;2023-05-08T04:20:18;100161.50;;;7.24;100.00
64675;BME280;51090;51.512;11.332;2023-05-08T04:22:47;100168.16;;;7.28;100.00
64675;BME280;51090;51.512;11.332;2023-05-08T04:25:16;100163.66;;;7.38;100.00
64675;BME280;51090;51.512;11.332;2023-05-08T04:27:44;100168.75;;;7.50;100.00
64675;BME280;51090;51.512;11.332;2023-05-08T04:30:11;100168.25;;;7.64;100.00
64675;BME280;51090;51.512;11.332;2023-05-08T04:32:38;100176.34;;;7.80;100.00
64675;BME280;51090;51.512;11.332;2023-05-08T04:35:05;100181.25;;;7.93;100.00
64675;BME280;51090;51.512;11.332;2023-05-08T04:37:31;100178.44;;;8.04;100.00
64675;BME280;51090;51.512;11.332;2023-05-08T04:39:58;100177.19;;;8.17;100.00
64675;BME280;51090;51.512;11.332;2023-05-08T04:42:25;100173.66;;;8.26;100.00
64675;BME280;51090;51.512;11.332;2023-05-08T04:44:51;100178.69;;;8.37;100.00
64675;BME280;51090;51.512;11.332;2023-05-08T04:47:18;100179.97;;;8.43;100.00
64675;BME280;51090;51.512;11.332;2023-05-08T04:49:44;100188.63;;;8.53;100.00
64675;BME280;51090;51.512;11.332;2023-05-08T04:52:10;100181.59;;;8.62;100.00
64675;BME280;51090;51.512;11.332;2023-05-08T04:54:36;100189.44;;;8.71;100.00
64675;BME280;51090;51.512;11.332;2023-05-08T04:57:03;100189.84;;;8.85;100.00
64675;BME280;51090;51.512;11.332;2023-05-08T04:59:29;100186.31;;;9.02;100.00
64675;BME280;51090;51.512;11.332;2023-05-08T05:01:56;100182.75;;;9.20;100.00
64675;BME280;51090;51.512;11.332;2023-05-08T05:04:22;100183.69;;;9.36;100.00
64675;BME280;51090;51.512;11.332;2023-05-08T05:06:48;100188.22;;;9.52;100.00
64675;BME280;51090;51.512;11.332;2023-05-08T05:09:14;100193.06;;;9.65;100.00
64675;BME280;51090;51.512;11.332;2023-05-08T05:11:40;100174.03;;;9.70;100.00
64675;BME280;51090;51.512;11.332;2023-05-08T05:14:06;100183.50;;;9.89;100.00
64675;BME280;51090;51.512;11.332;2023-05-08T05:16:32;100175.44;;;9.98;100.00
64675;BME280;51090;51.512;11.332;2023-05-08T05:18:58;100175.78;;;10.12;100.00
64675;BME280;51090;51.512;11.332;2023-05-08T05:21:24;100171.66;;;10.25;100.00
64675;BME280;51090;51.512;11.332;2023-05-08T05:23:50;100168.03;;;10.35;100.00
64675;BME280;51090;51.512;11.332;2023-05-08T05:26:16;100164.56;;;10.34;100.00
64675;BME280;51090;51.512;11.332;2023-05-08T05:28:42;100187.13;;;10.46;100.00
64675;BME280;51090;51.512;11.332;2023-05-08T05:31:07;100179.31;;;10.45;100.00
64675;BME280;51090;51.512;11.332;2023-05-08T05:33:33;100186.09;;;10.56;100.00
64675;BME280;51090;51.512;11.332;2023-05-08T05:35:59;100184.78;;;10.60;100.00
64675;BME280;51090;51.512;11.332;2023-05-08T05:38:25;100171.34;;;10.53;100.00
64675;BME280;51090;51.512;11.332;2023-05-08T05:40:51;100183.47;;;10.64;100.00
64675;BME280;51090;51.512;11.332;2023-05-08T05:43:16;100191.91;;;10.59;100.00
64675;BME280;51090;51.512;11.332;2023-05-08T05:45:42;100191.56;;;10.62;100.00
64675;BME280;51090;51.512;11.332;2023-05-08T05:48:08;100180.81;;;10.48;100.00
64675;BME280;51090;51.512;11.332;2023-05-08T05:50:34;100190.91;;;10.52;100.00
64675;BME280;51090;51.512;11.332;2023-05-08T05:52:59;100194.25;;;10.54;100.00
64675;BME280;51090;51.512;11.332;2023-05-08T05:55:25;100189.44;;;10.50;100.00
64675;BME280;51090;51.512;11.332;2023-05-08T05:57:51;100193.41;;;10.54;100.00
64675;BME280;51090;51.512;11.332;2023-05-08T06:00:17;100196.22;;;10.52;100.00
64675;BME280;51090;51.512;11.332;2023-05-08T06:02:43;100194.25;;;10.54;100.00
64675;BME280;51090;51.512;11.332;2023-05-08T06:05:09;100190.44;;;10.57;100.00
64675;BME280;51090;51.512;11.332;2023-05-08T06:07:35;100188.09;;;10.62;100.00
64675;BME280;51090;51.512;11.332;2023-05-08T06:10:01;100191.22;;;10.74;100.00
64675;BME280;51090;51.512;11.332;2023-05-08T06:12:27;100183.78;;;10.77;100.00
64675;BME280;51090;51.512;11.332;2023-05-08T06:14:53;100195.88;;;10.88;100.00
64675;BME280;51090;51.512;11.332;2023-05-08T06:17:19;100191.38;;;10.88;100.00
64675;BME280;51090;51.512;11.332;2023-05-08T06:19:45;100188.56;;;10.98;100.00
64675;BME280;51090;51.512;11.332;2023-05-08T06:22:18;100193.34;;;11.03;100.00
64675;BME280;51090;51.512;11.332;2023-05-08T06:24:46;100192.84;;;11.16;100.00
64675;BME280;51090;51.512;11.332;2023-05-08T06:27:11;100194.28;;;11.26;100.00
64675;BME280;51090;51.512;11.332;2023-05-08T06:29:37;100190.63;;;11.36;100.00
64675;BME280;51090;51.512;11.332;2023-05-08T06:32:03;100183.97;;;11.31;100.00
64675;BME280;51090;51.512;11.332;2023-05-08T06:34:28;100199.72;;;11.41;100.00
64675;BME280;51090;51.512;11.332;2023-05-08T06:36:54;100194.06;;;11.44;100.00
64675;BME280;51090;51.512;11.332;2023-05-08T06:39:20;100195.19;;;11.50;100.00
64675;BME280;51090;51.512;11.332;2023-05-08T06:41:49;100198.31;;;11.62;100.00
64675;BME280;51090;51.512;11.332;2023-05-08T06:44:15;100190.97;;;11.72;100.00
64675;BME280;51090;51.512;11.332;2023-05-08T06:46:41;100192.09;;;11.77;100.00
64675;BME280;51090;51.512;11.332;2023-05-08T06:49:07;100194.03;;;11.84;100.00
64675;BME280;51090;51.512;11.332;2023-05-08T06:51:32;100198.69;;;11.90;100.00
64675;BME280;51090;51.512;11.332;2023-05-08T06:54:00;100197.56;;;12.07;100.00
64675;BME280;51090;51.512;11.332;2023-05-08T06:56:26;100201.50;;;12.19;100.00
64675;BME280;51090;51.512;11.332;2023-05-08T06:58:52;100189.69;;;12.22;100.00
64675;BME280;51090;51.512;11.332;2023-05-08T07:01:18;100199.38;;;12.38;100.00
64675;BME280;51090;51.512;11.332;2023-05-08T07:03:43;100180.06;;;12.44;100.00
64675;BME280;51090;51.512;11.332;2023-05-08T07:06:09;100177.47;;;12.51;100.00
64675;BME280;51090;51.512;11.332;2023-05-08T07:08:35;100176.94;;;12.55;100.00
64675;BME280;51090;51.512;11.332;2023-05-08T07:11:02;100177.78;;;12.56;100.00
64675;BME280;51090;51.512;11.332;2023-05-08T07:13:28;100181.56;;;12.61;100.00
64675;BME280;51090;51.512;11.332;2023-05-08T07:15:54;100182.84;;;12.66;100.00
64675;BME280;51090;51.512;11.332;2023-05-08T07:18:20;100199.38;;;12.76;100.00
64675;BME280;51090;51.512;11.332;2023-05-08T07:20:46;100184.91;;;12.78;100.00
64675;BME280;51090;51.512;11.332;2023-05-08T07:23:12;100194.28;;;12.89;100.00
64675;BME280;51090;51.512;11.332;2023-05-08T07:25:38;100188.88;;;12.97;100.00
64675;BME280;51090;51.512;11.332;2023-05-08T07:28:03;100199.81;;;13.02;100.00
64675;BME280;51090;51.512;11.332;2023-05-08T07:30:29;100187.31;;;13.03;100.00
64675;BME280;51090;51.512;11.332;2023-05-08T07:32:55;100192.66;;;13.03;100.00
64675;BME280;51090;51.512;11.332;2023-05-08T07:35:21;100177.38;;;12.97;100.00
64675;BME280;51090;51.512;11.332;2023-05-08T07:37:47;100179.59;;;12.93;100.00
64675;BME280;51090;51.512;11.332;2023-05-08T07:40:13;100184.75;;;12.95;100.00
64675;BME280;51090;51.512;11.332;2023-05-08T07:42:42;100184.84;;;13.01;100.00
64675;BME280;51090;51.512;11.332;2023-05-08T07:45:11;100182.28;;;13.08;100.00
64675;BME280;51090;51.512;11.332;2023-05-08T07:47:57;100183.00;;;13.17;100.00
64675;BME280;51090;51.512;11.332;2023-05-08T07:50:24;100182.25;;;13.23;100.00
64675;BME280;51090;51.512;11.332;2023-05-08T07:52:51;100182.03;;;13.33;100.00
64675;BME280;51090;51.512;11.332;2023-05-08T07:55:18;100188.09;;;13.41;100.00
64675;BME280;51090;51.512;11.332;2023-05-08T07:57:44;100188.38;;;13.46;99.81
64675;BME280;51090;51.512;11.332;2023-05-08T08:00:13;100181.00;;;13.48;97.79
64675;BME280;51090;51.512;11.332;2023-05-08T08:02:41;100194.25;;;13.57;98.88
64675;BME280;51090;51.512;11.332;2023-05-08T08:05:07;100185.22;;;13.58;99.41
64675;BME280;51090;51.512;11.332;2023-05-08T08:07:33;100189.06;;;13.70;100.00
64675;BME280;51090;51.512;11.332;2023-05-08T08:10:00;100182.16;;;13.76;99.40
64675;BME280;51090;51.512;11.332;2023-05-08T08:12:26;100178.28;;;13.78;99.28
64675;BME280;51090;51.512;11.332;2023-05-08T08:14:53;100188.84;;;13.86;97.64
64675;BME280;51090;51.512;11.332;2023-05-08T08:17:19;100185.91;;;13.81;97.44
64675;BME280;51090;51.512;11.332;2023-05-08T08:19:45;100176.06;;;13.82;96.92
64675;BME280;51090;51.512;11.332;2023-05-08T08:22:13;100185.53;;;13.84;96.50
64675;BME280;51090;51.512;11.332;2023-05-08T08:24:38;100186.63;;;13.90;98.42
64675;BME280;51090;51.512;11.332;2023-05-08T08:27:04;100183.97;;;13.90;96.73
64675;BME280;51090;51.512;11.332;2023-05-08T08:29:30;100184.03;;;13.97;98.22
64675;BME280;51090;51.512;11.332;2023-05-08T08:31:56;100185.09;;;14.02;98.69
64675;BME280;51090;51.512;11.332;2023-05-08T08:34:22;100189.31;;;14.11;96.92
64675;BME280;51090;51.512;11.332;2023-05-08T08:36:48;100188.75;;;14.16;97.40
64675;BME280;51090;51.512;11.332;2023-05-08T08:39:14;100185.72;;;14.19;96.04
64675;BME280;51090;51.512;11.332;2023-05-08T08:41:39;100189.28;;;14.26;97.23
64675;BME280;51090;51.512;11.332;2023-05-08T08:44:05;100186.59;;;14.26;96.68
64675;BME280;51090;51.512;11.332;2023-05-08T08:46:32;100188.97;;;14.36;95.83
64675;BME280;51090;51.512;11.332;2023-05-08T08:48:58;100199.03;;;14.41;95.63
64675;BME280;51090;51.512;11.332;2023-05-08T08:51:31;100193.13;;;14.45;93.97
64675;BME280;51090;51.512;11.332;2023-05-08T08:54:10;100190.63;;;14.44;92.07
64675;BME280;51090;51.512;11.332;2023-05-08T08:56:38;100196.69;;;14.52;94.09
64675;BME280;51090;51.512;11.332;2023-05-08T08:59:05;100187.38;;;14.63;95.51
64675;BME280;51090;51.512;11.332;2023-05-08T09:01:38;100177.25;;;14.58;94.59
64675;BME280;51090;51.512;11.332;2023-05-08T09:04:05;100197.19;;;14.84;93.52
64675;BME280;51090;51.512;11.332;2023-05-08T09:06:36;100181.47;;;14.74;92.23
64675;BME280;51090;51.512;11.332;2023-05-08T09:09:03;100186.50;;;14.84;92.07
64675;BME280;51090;51.512;11.332;2023-05-08T09:11:29;100196.53;;;14.82;92.59
64675;BME280;51090;51.512;11.332;2023-05-08T09:13:55;100196.19;;;14.85;91.40
64675;BME280;51090;51.512;11.332;2023-05-08T09:16:21;100204.66;;;14.95;91.47
64675;BME280;51090;51.512;11.332;2023-05-08T09:18:50;100205.09;;;14.99;91.59
64675;BME280;51090;51.512;11.332;2023-05-08T09:21:16;100202.09;;;15.09;91.48
64675;BME280;51090;51.512;11.332;2023-05-08T09:24:03;100193.72;;;15.18;88.04
64675;BME280;51090;51.512;11.332;2023-05-08T09:26:37;100204.31;;;15.40;90.30
64675;BME280;51090;51.512;11.332;2023-05-08T09:29:11;100203.16;;;15.56;89.52
64675;BME280;51090;51.512;11.332;2023-05-08T09:31:41;100183.84;;;15.60;90.39
64675;BME280;51090;51.512;11.332;2023-05-08T09:36:54;100204.63;;;16.06;87.34
64675;BME280;51090;51.512;11.332;2023-05-08T09:39:24;100192.91;;;16.14;85.55
64675;BME280;51090;51.512;11.332;2023-05-08T09:42:01;100193.94;;;16.33;81.93
64675;BME280;51090;51.512;11.332;2023-05-08T09:44:28;100188.00;;;16.44;84.61
64675;BME280;51090;51.512;11.332;2023-05-08T09:47:15;100202.84;;;16.67;83.88
64675;BME280;51090;51.512;11.332;2023-05-08T09:50:00;100199.34;;;16.80;79.33
64675;BME280;51090;51.512;11.332;2023-05-08T09:52:31;100197.94;;;16.90;83.30
64675;BME280;51090;51.512;11.332;2023-05-08T09:54:58;100198.34;;;17.01;81.68
64675;BME280;51090;51.512;11.332;2023-05-08T09:57:25;100207.97;;;17.08;79.41
64675;BME280;51090;51.512;11.332;2023-05-08T10:00:11;100207.59;;;17.05;77.91
64675;BME280;51090;51.512;11.332;2023-05-08T10:02:39;100202.25;;;16.91;79.37
64675;BME280;51090;51.512;11.332;2023-05-08T10:05:32;100203.88;;;16.92;80.25
64675;BME280;51090;51.512;11.332;2023-05-08T10:08:21;100195.44;;;16.89;76.65
64675;BME280;51090;51.512;11.332;2023-05-08T10:10:47;100197.31;;;16.88;80.77
64675;BME280;51090;51.512;11.332;2023-05-08T10:13:13;100191.31;;;16.86;80.82
64675;BME280;51090;51.512;11.332;2023-05-08T10:15:42;100191.72;;;16.90;81.90
64675;BME280;51090;51.512;11.332;2023-05-08T10:18:08;100193.16;;;16.99;80.70
64675;BME280;51090;51.512;11.332;2023-05-08T10:20:40;100195.44;;;16.89;79.20
64675;BME280;51090;51.512;11.332;2023-05-08T10:23:07;100193.38;;;16.97;81.77
64675;BME280;51090;51.512;11.332;2023-05-08T10:25:46;100194.59;;;17.15;78.70
64675;BME280;51090;51.512;11.332;2023-05-08T10:28:36;100203.22;;;17.30;78.83
64675;BME280;51090;51.512;11.332;2023-05-08T10:31:05;100187.50;;;17.34;76.17
64675;BME280;51090;51.512;11.332;2023-05-08T10:33:34;100180.09;;;17.42;79.46
64675;BME280;51090;51.512;11.332;2023-05-08T10:36:00;100198.53;;;17.71;79.63
64675;BME280;51090;51.512;11.332;2023-05-08T10:38:26;100196.47;;;17.79;77.58
64675;BME280;51090;51.512;11.332;2023-05-08T10:40:53;100189.44;;;17.72;78.29
64675;BME280;51090;51.512;11.332;2023-05-08T10:43:24;100175.03;;;17.66;77.94
64675;BME280;51090;51.512;11.332;2023-05-08T10:45:51;100193.56;;;17.81;76.09
64675;BME280;51090;51.512;11.332;2023-05-08T10:48:34;100189.44;;;17.78;73.67
64675;BME280;51090;51.512;11.332;2023-05-08T10:51:20;100190.25;;;17.79;74.76
64675;BME280;51090;51.512;11.332;2023-05-08T10:54:01;100190.25;;;17.86;74.70
64675;BME280;51090;51.512;11.332;2023-05-08T10:56:29;100186.91;;;17.90;77.43
64675;BME280;51090;51.512;11.332;2023-05-08T10:58:56;100181.94;;;17.94;77.70
64675;BME280;51090;51.512;11.332;2023-05-08T11:01:24;100174.91;;;17.93;76.67
64675;BME280;51090;51.512;11.332;2023-05-08T11:03:49;100168.72;;;17.99;77.32
64675;BME280;51090;51.512;11.332;2023-05-08T11:06:17;100171.16;;;18.00;74.94
64675;BME280;51090;51.512;11.332;2023-05-08T11:08:50;100170.97;;;18.02;75.06
64675;BME280;51090;51.512;11.332;2023-05-08T11:11:31;100171.91;;;18.14;72.82
64675;BME280;51090;51.512;11.332;2023-05-08T11:19:28;100166.31;;;18.47;69.46
64675;BME280;51090;51.512;11.332;2023-05-08T11:22:16;100159.13;;;18.66;68.65
64675;BME280;51090;51.512;11.332;2023-05-08T11:25:08;100156.34;;;18.80;66.04
64675;BME280;51090;51.512;11.332;2023-05-08T11:30:25;100142.56;;;19.13;63.92
64675;BME280;51090;51.512;11.332;2023-05-08T11:38:37;100145.94;;;19.94;65.05
64675;BME280;51090;51.512;11.332;2023-05-08T11:41:10;100129.59;;;20.07;59.82
64675;BME280;51090;51.512;11.332;2023-05-08T11:44:09;100142.16;;;20.37;57.54
64675;BME280;51090;51.512;11.332;2023-05-08T11:46:53;100143.44;;;20.34;55.08
64675;BME280;51090;51.512;11.332;2023-05-08T11:49:22;100143.34;;;20.41;59.02
64675;BME280;51090;51.512;11.332;2023-05-08T11:51:50;100108.78;;;20.26;59.60
64675;BME280;51090;51.512;11.332;2023-05-08T11:54:20;100131.63;;;20.35;62.32
64675;BME280;51090;51.512;11.332;2023-05-08T11:56:48;100138.53;;;20.31;61.35
64675;BME280;51090;51.512;11.332;2023-05-08T11:59:15;100136.38;;;20.10;60.92
64675;BME280;51090;51.512;11.332;2023-05-08T12:01:41;100133.88;;;19.96;60.06
64675;BME280;51090;51.512;11.332;2023-05-08T12:04:09;100133.16;;;19.89;61.39
64675;BME280;51090;51.512;11.332;2023-05-08T12:06:38;100123.28;;;19.71;60.76
64675;BME280;51090;51.512;11.332;2023-05-08T12:09:17;100138.59;;;19.71;59.65
64675;BME280;51090;51.512;11.332;2023-05-08T12:11:44;100114.41;;;19.52;60.75
64675;BME280;51090;51.512;11.332;2023-05-08T12:14:16;100124.69;;;19.55;58.57
64675;BME280;51090;51.512;11.332;2023-05-08T12:16:42;100124.13;;;19.35;60.90
64675;BME280;51090;51.512;11.332;2023-05-08T12:19:12;100121.34;;;19.23;60.14
64675;BME280;51090;51.512;11.332;2023-05-08T12:21:45;100117.41;;;19.07;60.84
64675;BME280;51090;51.512;11.332;2023-05-08T12:24:12;100120.09;;;19.07;63.31
64675;BME280;51090;51.512;11.332;2023-05-08T12:26:38;100114.25;;;19.10;63.71
64675;BME280;51090;51.512;11.332;2023-05-08T12:29:05;100114.13;;;19.05;63.74
64675;BME280;51090;51.512;11.332;2023-05-08T12:31:36;100120.16;;;19.01;63.44
64675;BME280;51090;51.512;11.332;2023-05-08T12:34:03;100121.00;;;19.01;63.93
64675;BME280;51090;51.512;11.332;2023-05-08T12:36:36;100101.88;;;18.91;61.74
64675;BME280;51090;51.512;11.332;2023-05-08T12:39:17;100110.09;;;18.96;60.94
64675;BME280;51090;51.512;11.332;2023-05-08T12:41:48;100110.81;;;18.85;60.79
64675;BME280;51090;51.512;11.332;2023-05-08T12:44:24;100119.31;;;18.82;60.08
64675;BME280;51090;51.512;11.332;2023-05-08T12:46:57;100109.19;;;18.84;61.43
64675;BME280;51090;51.512;11.332;2023-05-08T12:49:28;100108.69;;;18.93;62.77
64675;BME280;51090;51.512;11.332;2023-05-08T12:52:05;100118.31;;;19.01;62.02
64675;BME280;51090;51.512;11.332;2023-05-08T12:54:37;100102.19;;;19.01;63.19
64675;BME280;51090;51.512;11.332;2023-05-08T12:57:14;100106.06;;;19.05;64.26
64675;BME280;51090;51.512;11.332;2023-05-08T12:59:41;100107.84;;;19.11;63.42
64675;BME280;51090;51.512;11.332;2023-05-08T13:02:18;100086.88;;;19.02;59.71
64675;BME280;51090;51.512;11.332;2023-05-08T13:04:46;100102.47;;;19.11;62.88
64675;BME280;51090;51.512;11.332;2023-05-08T13:07:12;100102.03;;;19.14;63.98
64675;BME280;51090;51.512;11.332;2023-05-08T13:09:38;100098.66;;;19.19;63.00
64675;BME280;51090;51.512;11.332;2023-05-08T13:12:04;100096.19;;;19.18;62.88
64675;BME280;51090;51.512;11.332;2023-05-08T13:14:31;100072.06;;;19.11;63.88
64675;BME280;51090;51.512;11.332;2023-05-08T13:16:57;100073.50;;;19.13;63.18
64675;BME280;51090;51.512;11.332;2023-05-08T13:19:22;100084.91;;;19.27;63.50
64675;BME280;51090;51.512;11.332;2023-05-08T13:21:48;100078.03;;;19.31;63.82
64675;BME280;51090;51.512;11.332;2023-05-08T13:24:14;100087.63;;;19.57;62.81
64675;BME280;51090;51.512;11.332;2023-05-08T13:26:40;100082.75;;;19.66;60.85
64675;BME280;51090;51.512;11.332;2023-05-08T13:29:05;100076.25;;;19.74;59.36
64675;BME280;51090;51.512;11.332;2023-05-08T13:31:31;100079.75;;;19.74;59.09
64675;BME280;51090;51.512;11.332;2023-05-08T13:33:57;100077.66;;;19.76;57.94
64675;BME280;51090;51.512;11.332;2023-05-08T13:36:23;100074.06;;;19.94;58.73